sensor_id;sensor_type;location;lat;lon;timestamp;P1;durP1;ratioP1;P2;durP2;ratioP2
3004;SDS011;1512;51.486;6.610;2023-03-29T00:01:07;6.03;;;4.23;;
3004;SDS011;1512;51.486;6.610;2023-03-29T00:05:17;7.67;;;4.73;;
3004;SDS011;1512;51.486;6.610;2023-03-29T00:09:29;6.00;;;4.00;;
3004;SDS011;1512;51.486;6.610;2023-03-29T00:13:39;5.03;;;4.50;;
3004;SDS011;1512;51.486;6.610;2023-03-29T00:17:48;5.70;;;4.70;;
3004;SDS011;1512;51.486;6.610;2023-03-29T00:21:56;10.23;;;5.33;;
3004;SDS011;1512;51.486;6.610;2023-03-29T00:26:05;6.80;;;5.10;;
3004;SDS011;1512;51.486;6.610;2023-03-29T00:30:14;5.40;;;4.70;;
3004;SDS011;1512;51.486;6.610;2023-03-29T00:38:52;7.50;;;5.17;;
3004;SDS011;1512;51.486;6.610;2023-03-29T00:43:02;7.37;;;4.47;;
3004;SDS011;1512;51.486;6.610;2023-03-29T00:47:12;8.50;;;6.50;;
3004;SDS011;1512;51.486;6.610;2023-03-29T00:51:21;7.77;;;4.83;;
3004;SDS011;1512;51.486;6.610;2023-03-29T00:55:37;10.30;;;4.73;;
3004;SDS011;1512;51.486;6.610;2023-03-29T00:59:44;7.83;;;5.20;;
3004;SDS011;1512;51.486;6.610;2023-03-29T01:04:02;4.57;;;3.80;;
3004;SDS011;1512;51.486;6.610;2023-03-29T01:08:22;14.63;;;4.90;;
3004;SDS011;1512;51.486;6.610;2023-03-29T01:12:42;4.43;;;4.03;;
3004;SDS011;1512;51.486;6.610;2023-03-29T01:16:52;4.83;;;4.43;;
3004;SDS011;1512;51.486;6.610;2023-03-29T01:21:12;5.83;;;4.27;;
3004;SDS011;1512;51.486;6.610;2023-03-29T01:25:37;9.90;;;4.43;;
3004;SDS011;1512;51.486;6.610;2023-03-29T01:29:51;6.67;;;4.90;;
3004;SDS011;1512;51.486;6.610;2023-03-29T01:34:01;5.15;;;4.65;;
3004;SDS011;1512;51.486;6.610;2023-03-29T01:43:09;6.63;;;4.50;;
3004;SDS011;1512;51.486;6.610;2023-03-29T01:56:09;8.70;;;5.50;;
3004;SDS011;1512;51.486;6.610;2023-03-29T02:00:17;8.07;;;4.40;;
3004;SDS011;1512;51.486;6.610;2023-03-29T02:04:28;8.43;;;5.57;;
3004;SDS011;1512;51.486;6.610;2023-03-29T02:08:50;5.67;;;5.17;;
3004;SDS011;1512;51.486;6.610;2023-03-29T02:13:00;6.27;;;5.37;;
3004;SDS011;1512;51.486;6.610;2023-03-29T02:21:31;6.90;;;5.40;;
3004;SDS011;1512;51.486;6.610;2023-03-29T02:25:41;7.07;;;4.97;;
3004;SDS011;1512;51.486;6.610;2023-03-29T02:29:51;8.57;;;5.70;;
3004;SDS011;1512;51.486;6.610;2023-03-29T02:34:01;8.10;;;4.97;;
3004;SDS011;1512;51.486;6.610;2023-03-29T02:42:30;9.90;;;5.77;;
3004;SDS011;1512;51.486;6.610;2023-03-29T02:46:39;6.37;;;4.43;;
3004;SDS011;1512;51.486;6.610;2023-03-29T02:50:50;6.33;;;4.40;;
3004;SDS011;1512;51.486;6.610;2023-03-29T02:55:01;4.80;;;4.27;;
3004;SDS011;1512;51.486;6.610;2023-03-29T02:59:13;4.73;;;4.10;;
3004;SDS011;1512;51.486;6.610;2023-03-29T03:03:25;5.97;;;4.20;;
3004;SDS011;1512;51.486;6.610;2023-03-29T03:07:34;4.57;;;4.17;;
3004;SDS011;1512;51.486;6.610;2023-03-29T03:11:43;5.50;;;4.10;;
3004;SDS011;1512;51.486;6.610;2023-03-29T03:15:52;5.80;;;3.63;;
3004;SDS011;1512;51.486;6.610;2023-03-29T03:20:01;3.63;;;3.30;;
3004;SDS011;1512;51.486;6.610;2023-03-29T03:24:11;5.30;;;3.80;;
3004;SDS011;1512;51.486;6.610;2023-03-29T03:28:20;4.60;;;3.90;;
3004;SDS011;1512;51.486;6.610;2023-03-29T03:32:30;4.17;;;3.40;;
3004;SDS011;1512;51.486;6.610;2023-03-29T03:36:41;6.90;;;3.87;;
3004;SDS011;1512;51.486;6.610;2023-03-29T03:40:57;3.67;;;3.17;;
3004;SDS011;1512;51.486;6.610;2023-03-29T03:45:03;4.90;;;4.30;;
3004;SDS011;1512;51.486;6.610;2023-03-29T03:49:12;5.40;;;3.60;;
3004;SDS011;1512;51.486;6.610;2023-03-29T03:53:21;4.00;;;3.60;;
3004;SDS011;1512;51.486;6.610;2023-03-29T03:57:30;7.93;;;3.40;;
3004;SDS011;1512;51.486;6.610;2023-03-29T04:01:39;4.20;;;3.23;;
3004;SDS011;1512;51.486;6.610;2023-03-29T04:05:51;4.17;;;3.77;;
3004;SDS011;1512;51.486;6.610;2023-03-29T04:09:59;5.63;;;3.80;;
3004;SDS011;1512;51.486;6.610;2023-03-29T04:14:08;6.17;;;3.73;;
3004;SDS011;1512;51.486;6.610;2023-03-29T04:18:17;6.50;;;4.37;;
3004;SDS011;1512;51.486;6.610;2023-03-29T04:22:26;5.20;;;4.00;;
3004;SDS011;1512;51.486;6.610;2023-03-29T04:26:35;6.67;;;3.90;;
3004;SDS011;1512;51.486;6.610;2023-03-29T04:30:44;5.12;;;3.85;;
3004;SDS011;1512;51.486;6.610;2023-03-29T04:34:54;3.77;;;3.47;;
3004;SDS011;1512;51.486;6.610;2023-03-29T04:39:03;5.33;;;4.30;;
3004;SDS011;1512;51.486;6.610;2023-03-29T04:43:13;21.07;;;4.80;;
3004;SDS011;1512;51.486;6.610;2023-03-29T04:47:22;6.17;;;4.17;;
3004;SDS011;1512;51.486;6.610;2023-03-29T04:51:31;6.27;;;4.33;;
3004;SDS011;1512;51.486;6.610;2023-03-29T04:55:40;6.10;;;4.17;;
3004;SDS011;1512;51.486;6.610;2023-03-29T04:59:48;4.00;;;2.97;;
3004;SDS011;1512;51.486;6.610;2023-03-29T05:03:57;4.80;;;3.40;;
3004;SDS011;1512;51.486;6.610;2023-03-29T05:08:06;4.87;;;3.80;;
3004;SDS011;1512;51.486;6.610;2023-03-29T05:12:15;7.70;;;4.30;;
3004;SDS011;1512;51.486;6.610;2023-03-29T05:16:23;5.97;;;4.57;;
3004;SDS011;1512;51.486;6.610;2023-03-29T05:20:34;6.20;;;5.20;;
3004;SDS011;1512;51.486;6.610;2023-03-29T05:24:43;9.20;;;5.57;;
3004;SDS011;1512;51.486;6.610;2023-03-29T05:28:52;17.03;;;5.40;;
3004;SDS011;1512;51.486;6.610;2023-03-29T05:33:01;6.90;;;5.07;;
3004;SDS011;1512;51.486;6.610;2023-03-29T05:37:11;6.53;;;5.00;;
3004;SDS011;1512;51.486;6.610;2023-03-29T05:41:20;7.80;;;5.97;;
3004;SDS011;1512;51.486;6.610;2023-03-29T05:45:30;7.80;;;6.83;;
3004;SDS011;1512;51.486;6.610;2023-03-29T05:49:39;12.80;;;7.85;;
3004;SDS011;1512;51.486;6.610;2023-03-29T05:53:49;12.83;;;7.13;;
3004;SDS011;1512;51.486;6.610;2023-03-29T05:57:58;9.97;;;6.90;;
3004;SDS011;1512;51.486;6.610;2023-03-29T06:02:06;10.67;;;7.03;;
3004;SDS011;1512;51.486;6.610;2023-03-29T06:06:16;13.97;;;7.27;;
3004;SDS011;1512;51.486;6.610;2023-03-29T06:10:27;10.80;;;5.80;;
3004;SDS011;1512;51.486;6.610;2023-03-29T06:19:05;10.40;;;7.07;;
3004;SDS011;1512;51.486;6.610;2023-03-29T06:23:14;11.10;;;5.77;;
3004;SDS011;1512;51.486;6.610;2023-03-29T06:27:24;7.50;;;5.90;;
3004;SDS011;1512;51.486;6.610;2023-03-29T06:31:32;7.70;;;5.83;;
3004;SDS011;1512;51.486;6.610;2023-03-29T06:35:42;9.10;;;5.77;;
3004;SDS011;1512;51.486;6.610;2023-03-29T06:39:53;8.30;;;7.10;;
3004;SDS011;1512;51.486;6.610;2023-03-29T06:44:03;8.70;;;6.50;;
3004;SDS011;1512;51.486;6.610;2023-03-29T06:48:11;11.40;;;5.87;;
3004;SDS011;1512;51.486;6.610;2023-03-29T06:52:20;6.50;;;4.93;;
3004;SDS011;1512;51.486;6.610;2023-03-29T06:56:29;6.47;;;5.67;;
3004;SDS011;1512;51.486;6.610;2023-03-29T07:00:38;5.97;;;4.83;;
3004;SDS011;1512;51.486;6.610;2023-03-29T07:04:47;5.50;;;4.50;;
3004;SDS011;1512;51.486;6.610;2023-03-29T07:08:57;6.07;;;4.87;;
3004;SDS011;1512;51.486;6.610;2023-03-29T07:13:08;7.90;;;4.97;;
3004;SDS011;1512;51.486;6.610;2023-03-29T07:17:19;7.43;;;5.80;;
3004;SDS011;1512;51.486;6.610;2023-03-29T07:21:29;6.27;;;4.60;;
3004;SDS011;1512;51.486;6.610;2023-03-29T07:25:40;7.83;;;5.57;;
3004;SDS011;1512;51.486;6.610;2023-03-29T07:29:49;9.43;;;6.27;;
3004;SDS011;1512;51.486;6.610;2023-03-29T07:33:58;7.43;;;5.83;;
3004;SDS011;1512;51.486;6.610;2023-03-29T07:38:06;7.60;;;5.60;;
3004;SDS011;1512;51.486;6.610;2023-03-29T07:42:15;10.90;;;5.03;;
3004;SDS011;1512;51.486;6.610;2023-03-29T07:46:24;5.90;;;5.23;;
3004;SDS011;1512;51.486;6.610;2023-03-29T07:50:32;6.10;;;5.50;;
3004;SDS011;1512;51.486;6.610;2023-03-29T07:54:41;6.40;;;5.10;;
3004;SDS011;1512;51.486;6.610;2023-03-29T07:58:50;6.53;;;4.53;;
3004;SDS011;1512;51.486;6.610;2023-03-29T08:02:58;8.17;;;5.23;;
3004;SDS011;1512;51.486;6.610;2023-03-29T08:07:10;5.10;;;4.60;;
3004;SDS011;1512;51.486;6.610;2023-03-29T08:11:19;9.90;;;5.00;;
3004;SDS011;1512;51.486;6.610;2023-03-29T08:15:29;6.13;;;5.23;;
3004;SDS011;1512;51.486;6.610;2023-03-29T08:19:38;4.90;;;4.40;;
3004;SDS011;1512;51.486;6.610;2023-03-29T08:23:48;9.70;;;4.63;;
3004;SDS011;1512;51.486;6.610;2023-03-29T08:27:57;10.87;;;4.53;;
3004;SDS011;1512;51.486;6.610;2023-03-29T08:32:06;5.80;;;3.77;;
3004;SDS011;1512;51.486;6.610;2023-03-29T08:36:14;5.60;;;3.87;;
3004;SDS011;1512;51.486;6.610;2023-03-29T08:40:23;5.93;;;4.90;;
3004;SDS011;1512;51.486;6.610;2023-03-29T08:49:03;6.30;;;5.37;;
3004;SDS011;1512;51.486;6.610;2023-03-29T08:53:18;6.00;;;5.20;;
3004;SDS011;1512;51.486;6.610;2023-03-29T08:57:42;5.70;;;5.10;;
3004;SDS011;1512;51.486;6.610;2023-03-29T09:01:43;7.47;;;5.27;;
3004;SDS011;1512;51.486;6.610;2023-03-29T09:05:55;5.40;;;4.47;;
3004;SDS011;1512;51.486;6.610;2023-03-29T09:10:08;9.43;;;6.37;;
3004;SDS011;1512;51.486;6.610;2023-03-29T09:18:58;6.60;;;5.40;;
3004;SDS011;1512;51.486;6.610;2023-03-29T09:32:15;5.80;;;4.87;;
3004;SDS011;1512;51.486;6.610;2023-03-29T09:36:34;6.53;;;4.67;;
3004;SDS011;1512;51.486;6.610;2023-03-29T09:40:50;5.80;;;4.40;;
3004;SDS011;1512;51.486;6.610;2023-03-29T09:45:07;5.90;;;3.40;;
3004;SDS011;1512;51.486;6.610;2023-03-29T09:49:17;6.37;;;4.10;;
3004;SDS011;1512;51.486;6.610;2023-03-29T09:53:28;5.07;;;4.00;;
3004;SDS011;1512;51.486;6.610;2023-03-29T09:57:37;7.27;;;5.07;;
3004;SDS011;1512;51.486;6.610;2023-03-29T10:01:46;6.20;;;4.87;;
3004;SDS011;1512;51.486;6.610;2023-03-29T10:05:56;9.10;;;4.27;;
3004;SDS011;1512;51.486;6.610;2023-03-29T10:10:13;5.70;;;4.97;;
3004;SDS011;1512;51.486;6.610;2023-03-29T10:14:40;4.17;;;3.77;;
3004;SDS011;1512;51.486;6.610;2023-03-29T10:18:52;7.87;;;5.03;;
3004;SDS011;1512;51.486;6.610;2023-03-29T10:23:01;6.23;;;4.87;;
3004;SDS011;1512;51.486;6.610;2023-03-29T10:27:11;9.27;;;6.70;;
3004;SDS011;1512;51.486;6.610;2023-03-29T10:31:20;4.80;;;3.97;;
3004;SDS011;1512;51.486;6.610;2023-03-29T10:35:36;5.03;;;3.93;;
3004;SDS011;1512;51.486;6.610;2023-03-29T10:39:50;8.80;;;4.60;;
3004;SDS011;1512;51.486;6.610;2023-03-29T10:44:03;4.37;;;3.98;;
3004;SDS011;1512;51.486;6.610;2023-03-29T10:48:12;6.73;;;4.53;;
3004;SDS011;1512;51.486;6.610;2023-03-29T10:52:22;4.53;;;4.10;;
3004;SDS011;1512;51.486;6.610;2023-03-29T10:56:42;5.53;;;4.30;;
3004;SDS011;1512;51.486;6.610;2023-03-29T11:00:56;6.37;;;4.83;;
3004;SDS011;1512;51.486;6.610;2023-03-29T11:05:19;8.37;;;4.80;;
3004;SDS011;1512;51.486;6.610;2023-03-29T11:18:40;4.33;;;3.70;;
3004;SDS011;1512;51.486;6.610;2023-03-29T11:27:11;5.13;;;3.90;;
3004;SDS011;1512;51.486;6.610;2023-03-29T11:40:27;3.70;;;3.30;;
3004;SDS011;1512;51.486;6.610;2023-03-29T11:44:49;5.83;;;4.00;;
3004;SDS011;1512;51.486;6.610;2023-03-29T11:49:48;4.10;;;3.60;;
3004;SDS011;1512;51.486;6.610;2023-03-29T11:53:38;5.87;;;4.60;;
3004;SDS011;1512;51.486;6.610;2023-03-29T11:57:57;4.80;;;4.27;;
3004;SDS011;1512;51.486;6.610;2023-03-29T12:02:12;5.30;;;3.73;;
3004;SDS011;1512;51.486;6.610;2023-03-29T12:06:30;5.50;;;4.50;;
3004;SDS011;1512;51.486;6.610;2023-03-29T12:15:18;5.63;;;3.90;;
3004;SDS011;1512;51.486;6.610;2023-03-29T12:19:49;7.17;;;4.43;;
3004;SDS011;1512;51.486;6.610;2023-03-29T12:24:17;3.60;;;3.30;;
3004;SDS011;1512;51.486;6.610;2023-03-29T12:28:43;5.57;;;3.90;;
3004;SDS011;1512;51.486;6.610;2023-03-29T12:37:44;7.63;;;3.80;;
3004;SDS011;1512;51.486;6.610;2023-03-29T12:42:05;4.87;;;4.33;;
3004;SDS011;1512;51.486;6.610;2023-03-29T12:46:51;6.63;;;4.60;;
3004;SDS011;1512;51.486;6.610;2023-03-29T12:51:02;5.00;;;4.50;;
3004;SDS011;1512;51.486;6.610;2023-03-29T12:55:20;9.27;;;4.93;;
3004;SDS011;1512;51.486;6.610;2023-03-29T12:59:37;4.97;;;4.07;;
3004;SDS011;1512;51.486;6.610;2023-03-29T13:03:54;4.43;;;3.60;;
3004;SDS011;1512;51.486;6.610;2023-03-29T13:08:17;8.00;;;5.23;;
3004;SDS011;1512;51.486;6.610;2023-03-29T13:12:34;6.80;;;4.80;;
3004;SDS011;1512;51.486;6.610;2023-03-29T13:16:52;4.10;;;3.70;;
3004;SDS011;1512;51.486;6.610;2023-03-29T13:21:13;4.30;;;3.87;;
3004;SDS011;1512;51.486;6.610;2023-03-29T13:25:48;4.93;;;3.97;;
3004;SDS011;1512;51.486;6.610;2023-03-29T13:38:42;7.47;;;4.20;;
3004;SDS011;1512;51.486;6.610;2023-03-29T13:42:58;4.90;;;4.50;;
3004;SDS011;1512;51.486;6.610;2023-03-29T13:51:46;4.43;;;4.00;;
3004;SDS011;1512;51.486;6.610;2023-03-29T13:55:56;5.80;;;4.47;;
3004;SDS011;1512;51.486;6.610;2023-03-29T14:00:17;5.33;;;4.23;;
3004;SDS011;1512;51.486;6.610;2023-03-29T14:04:33;3.53;;;3.23;;
3004;SDS011;1512;51.486;6.610;2023-03-29T14:08:40;5.13;;;4.20;;
3004;SDS011;1512;51.486;6.610;2023-03-29T14:12:50;4.80;;;3.43;;
3004;SDS011;1512;51.486;6.610;2023-03-29T14:17:02;4.93;;;3.70;;
3004;SDS011;1512;51.486;6.610;2023-03-29T14:21:12;3.97;;;3.53;;
3004;SDS011;1512;51.486;6.610;2023-03-29T14:25:22;3.30;;;3.00;;
3004;SDS011;1512;51.486;6.610;2023-03-29T14:29:31;5.70;;;3.57;;
3004;SDS011;1512;51.486;6.610;2023-03-29T14:33:41;5.07;;;3.63;;
3004;SDS011;1512;51.486;6.610;2023-03-29T14:37:50;5.43;;;3.40;;
3004;SDS011;1512;51.486;6.610;2023-03-29T14:41:58;5.40;;;4.03;;
3004;SDS011;1512;51.486;6.610;2023-03-29T14:46:08;5.90;;;3.20;;
3004;SDS011;1512;51.486;6.610;2023-03-29T14:50:20;4.73;;;2.80;;
3004;SDS011;1512;51.486;6.610;2023-03-29T14:54:31;3.23;;;3.03;;
3004;SDS011;1512;51.486;6.610;2023-03-29T14:58:43;5.33;;;3.00;;
3004;SDS011;1512;51.486;6.610;2023-03-29T15:07:07;4.40;;;2.80;;
3004;SDS011;1512;51.486;6.610;2023-03-29T15:11:26;4.63;;;3.27;;
3004;SDS011;1512;51.486;6.610;2023-03-29T15:15:35;3.80;;;3.20;;
3004;SDS011;1512;51.486;6.610;2023-03-29T15:19:45;3.00;;;2.70;;
3004;SDS011;1512;51.486;6.610;2023-03-29T15:23:55;5.90;;;2.87;;
3004;SDS011;1512;51.486;6.610;2023-03-29T15:28:05;2.77;;;2.57;;
3004;SDS011;1512;51.486;6.610;2023-03-29T15:32:22;4.13;;;3.47;;
3004;SDS011;1512;51.486;6.610;2023-03-29T15:36:33;5.27;;;3.63;;
3004;SDS011;1512;51.486;6.610;2023-03-29T15:40:45;4.73;;;3.70;;
3004;SDS011;1512;51.486;6.610;2023-03-29T15:44:54;3.30;;;3.00;;
3004;SDS011;1512;51.486;6.610;2023-03-29T15:49:04;5.20;;;3.77;;
3004;SDS011;1512;51.486;6.610;2023-03-29T15:53:15;3.30;;;2.90;;
3004;SDS011;1512;51.486;6.610;2023-03-29T16:01:35;4.00;;;3.53;;
3004;SDS011;1512;51.486;6.610;2023-03-29T16:05:45;3.50;;;2.60;;
3004;SDS011;1512;51.486;6.610;2023-03-29T16:09:53;7.33;;;3.40;;
3004;SDS011;1512;51.486;6.610;2023-03-29T16:14:05;7.50;;;3.33;;
3004;SDS011;1512;51.486;6.610;2023-03-29T16:18:13;5.50;;;3.30;;
3004;SDS011;1512;51.486;6.610;2023-03-29T16:22:22;4.03;;;3.00;;
3004;SDS011;1512;51.486;6.610;2023-03-29T16:26:31;3.57;;;3.03;;
3004;SDS011;1512;51.486;6.610;2023-03-29T16:30:41;3.80;;;3.27;;
3004;SDS011;1512;51.486;6.610;2023-03-29T16:34:50;3.77;;;2.77;;
3004;SDS011;1512;51.486;6.610;2023-03-29T16:38:59;3.37;;;3.10;;
3004;SDS011;1512;51.486;6.610;2023-03-29T16:43:12;3.10;;;2.80;;
3004;SDS011;1512;51.486;6.610;2023-03-29T16:47:22;3.67;;;3.37;;
3004;SDS011;1512;51.486;6.610;2023-03-29T16:51:30;3.50;;;2.87;;
3004;SDS011;1512;51.486;6.610;2023-03-29T16:55:39;5.33;;;3.27;;
3004;SDS011;1512;51.486;6.610;2023-03-29T16:59:48;6.17;;;3.40;;
3004;SDS011;1512;51.486;6.610;2023-03-29T17:03:59;4.43;;;3.30;;
3004;SDS011;1512;51.486;6.610;2023-03-29T17:08:07;4.73;;;3.30;;
3004;SDS011;1512;51.486;6.610;2023-03-29T17:12:16;4.17;;;3.30;;
3004;SDS011;1512;51.486;6.610;2023-03-29T17:16:27;4.77;;;3.20;;
3004;SDS011;1512;51.486;6.610;2023-03-29T17:20:37;3.97;;;2.80;;
3004;SDS011;1512;51.486;6.610;2023-03-29T17:24:46;4.47;;;3.00;;
3004;SDS011;1512;51.486;6.610;2023-03-29T17:28:54;4.07;;;3.50;;
3004;SDS011;1512;51.486;6.610;2023-03-29T17:33:03;2.90;;;2.63;;
3004;SDS011;1512;51.486;6.610;2023-03-29T17:37:13;5.23;;;2.90;;
3004;SDS011;1512;51.486;6.610;2023-03-29T17:41:23;3.83;;;3.17;;
3004;SDS011;1512;51.486;6.610;2023-03-29T17:45:34;4.73;;;3.20;;
3004;SDS011;1512;51.486;6.610;2023-03-29T17:49:43;4.00;;;3.20;;
3004;SDS011;1512;51.486;6.610;2023-03-29T17:53:52;4.30;;;3.20;;
3004;SDS011;1512;51.486;6.610;2023-03-29T17:58:02;4.63;;;3.40;;
3004;SDS011;1512;51.486;6.610;2023-03-29T18:02:17;3.77;;;3.10;;
3004;SDS011;1512;51.486;6.610;2023-03-29T18:06:23;4.87;;;3.40;;
3004;SDS011;1512;51.486;6.610;2023-03-29T18:10:37;3.63;;;2.83;;
3004;SDS011;1512;51.486;6.610;2023-03-29T18:14:50;6.03;;;3.83;;
3004;SDS011;1512;51.486;6.610;2023-03-29T18:19:07;4.20;;;2.90;;
3004;SDS011;1512;51.486;6.610;2023-03-29T18:23:16;6.00;;;5.07;;
3004;SDS011;1512;51.486;6.610;2023-03-29T18:27:25;6.50;;;3.90;;
3004;SDS011;1512;51.486;6.610;2023-03-29T18:31:33;4.30;;;3.57;;
3004;SDS011;1512;51.486;6.610;2023-03-29T18:35:49;3.80;;;3.37;;
3004;SDS011;1512;51.486;6.610;2023-03-29T18:39:58;3.37;;;3.07;;
3004;SDS011;1512;51.486;6.610;2023-03-29T18:44:08;4.30;;;3.57;;
3004;SDS011;1512;51.486;6.610;2023-03-29T18:52:45;3.57;;;3.07;;
3004;SDS011;1512;51.486;6.610;2023-03-29T18:56:54;4.47;;;3.37;;
3004;SDS011;1512;51.486;6.610;2023-03-29T19:01:04;4.42;;;3.50;;
3004;SDS011;1512;51.486;6.610;2023-03-29T19:05:13;3.77;;;3.40;;
3004;SDS011;1512;51.486;6.610;2023-03-29T19:09:22;4.97;;;3.23;;
3004;SDS011;1512;51.486;6.610;2023-03-29T19:13:31;4.73;;;3.47;;
3004;SDS011;1512;51.486;6.610;2023-03-29T19:17:40;3.40;;;2.87;;
3004;SDS011;1512;51.486;6.610;2023-03-29T19:21:49;10.50;;;4.07;;
3004;SDS011;1512;51.486;6.610;2023-03-29T19:25:59;4.93;;;3.40;;
3004;SDS011;1512;51.486;6.610;2023-03-29T19:30:09;4.10;;;3.43;;
3004;SDS011;1512;51.486;6.610;2023-03-29T19:34:19;4.20;;;3.80;;
3004;SDS011;1512;51.486;6.610;2023-03-29T19:38:29;3.80;;;3.40;;
3004;SDS011;1512;51.486;6.610;2023-03-29T19:42:38;3.70;;;3.20;;
3004;SDS011;1512;51.486;6.610;2023-03-29T19:46:47;5.30;;;3.07;;
3004;SDS011;1512;51.486;6.610;2023-03-29T19:50:59;4.03;;;3.63;;
3004;SDS011;1512;51.486;6.610;2023-03-29T19:55:09;6.30;;;3.70;;
3004;SDS011;1512;51.486;6.610;2023-03-29T19:59:18;3.83;;;3.30;;
3004;SDS011;1512;51.486;6.610;2023-03-29T20:03:27;5.20;;;3.50;;
3004;SDS011;1512;51.486;6.610;2023-03-29T20:07:36;3.43;;;3.10;;
3004;SDS011;1512;51.486;6.610;2023-03-29T20:11:44;5.80;;;3.47;;
3004;SDS011;1512;51.486;6.610;2023-03-29T20:15:53;4.87;;;3.77;;
3004;SDS011;1512;51.486;6.610;2023-03-29T20:20:02;5.40;;;3.27;;
3004;SDS011;1512;51.486;6.610;2023-03-29T20:24:13;4.90;;;3.70;;
3004;SDS011;1512;51.486;6.610;2023-03-29T20:28:22;4.55;;;3.12;;
3004;SDS011;1512;51.486;6.610;2023-03-29T20:32:31;5.40;;;3.80;;
3004;SDS011;1512;51.486;6.610;2023-03-29T20:36:40;4.83;;;3.37;;
3004;SDS011;1512;51.486;6.610;2023-03-29T20:40:49;5.10;;;3.47;;
3004;SDS011;1512;51.486;6.610;2023-03-29T20:44:59;3.33;;;3.03;;
3004;SDS011;1512;51.486;6.610;2023-03-29T20:49:08;3.90;;;3.33;;
3004;SDS011;1512;51.486;6.610;2023-03-29T20:53:16;7.93;;;5.27;;
3004;SDS011;1512;51.486;6.610;2023-03-29T20:57:26;6.67;;;4.20;;
3004;SDS011;1512;51.486;6.610;2023-03-29T21:01:36;4.73;;;4.23;;
3004;SDS011;1512;51.486;6.610;2023-03-29T21:05:47;5.93;;;3.90;;
3004;SDS011;1512;51.486;6.610;2023-03-29T21:09:58;11.50;;;4.80;;
3004;SDS011;1512;51.486;6.610;2023-03-29T21:14:07;5.50;;;3.73;;
3004;SDS011;1512;51.486;6.610;2023-03-29T21:18:16;5.50;;;4.00;;
3004;SDS011;1512;51.486;6.610;2023-03-29T21:22:24;6.10;;;3.70;;
3004;SDS011;1512;51.486;6.610;2023-03-29T21:26:33;5.43;;;4.93;;
3004;SDS011;1512;51.486;6.610;2023-03-29T21:30:42;7.70;;;3.73;;
3004;SDS011;1512;51.486;6.610;2023-03-29T21:34:51;4.00;;;3.60;;
3004;SDS011;1512;51.486;6.610;2023-03-29T21:38:59;4.43;;;4.03;;
3004;SDS011;1512;51.486;6.610;2023-03-29T21:43:08;4.37;;;3.67;;
3004;SDS011;1512;51.486;6.610;2023-03-29T21:47:17;4.80;;;4.33;;
3004;SDS011;1512;51.486;6.610;2023-03-29T21:51:25;7.83;;;4.40;;
3004;SDS011;1512;51.486;6.610;2023-03-29T21:55:34;9.50;;;4.30;;
3004;SDS011;1512;51.486;6.610;2023-03-29T21:59:43;6.37;;;5.40;;
3004;SDS011;1512;51.486;6.610;2023-03-29T22:03:51;7.30;;;4.50;;
3004;SDS011;1512;51.486;6.610;2023-03-29T22:08:00;16.40;;;5.30;;
3004;SDS011;1512;51.486;6.610;2023-03-29T22:12:09;7.27;;;5.03;;
3004;SDS011;1512;51.486;6.610;2023-03-29T22:16:18;6.33;;;4.40;;
3004;SDS011;1512;51.486;6.610;2023-03-29T22:20:27;7.70;;;4.53;;
3004;SDS011;1512;51.486;6.610;2023-03-29T22:24:36;7.60;;;5.50;;
3004;SDS011;1512;51.486;6.610;2023-03-29T22:28:44;6.70;;;4.50;;
3004;SDS011;1512;51.486;6.610;2023-03-29T22:32:53;6.00;;;4.40;;
3004;SDS011;1512;51.486;6.610;2023-03-29T22:37:02;7.57;;;4.80;;
3004;SDS011;1512;51.486;6.610;2023-03-29T22:41:11;5.47;;;3.90;;
3004;SDS011;1512;51.486;6.610;2023-03-29T22:45:21;4.93;;;4.03;;
3004;SDS011;1512;51.486;6.610;2023-03-29T22:49:30;6.63;;;4.57;;
3004;SDS011;1512;51.486;6.610;2023-03-29T22:53:39;5.97;;;4.63;;
3004;SDS011;1512;51.486;6.610;2023-03-29T22:57:47;6.07;;;4.17;;
3004;SDS011;1512;51.486;6.610;2023-03-29T23:01:56;4.20;;;3.77;;
3004;SDS011;1512;51.486;6.610;2023-03-29T23:06:05;6.00;;;3.80;;
3004;SDS011;1512;51.486;6.610;2023-03-29T23:10:14;5.93;;;3.60;;
3004;SDS011;1512;51.486;6.610;2023-03-29T23:14:23;7.70;;;4.10;;
3004;SDS011;1512;51.486;6.610;2023-03-29T23:18:32;4.63;;;4.10;;
3004;SDS011;1512;51.486;6.610;2023-03-29T23:22:42;4.10;;;3.80;;
3004;SDS011;1512;51.486;6.610;2023-03-29T23:26:51;5.50;;;4.00;;
3004;SDS011;1512;51.486;6.610;2023-03-29T23:31:05;3.70;;;3.40;;
3004;SDS011;1512;51.486;6.610;2023-03-29T23:35:15;4.43;;;3.20;;
3004;SDS011;1512;51.486;6.610;2023-03-29T23:39:24;5.33;;;4.03;;
3004;SDS011;1512;51.486;6.610;2023-03-29T23:43:33;4.90;;;3.60;;
3004;SDS011;1512;51.486;6.610;2023-03-29T23:47:45;3.83;;;3.30;;
3004;SDS011;1512;51.486;6.610;2023-03-29T23:51:54;3.87;;;3.07;;
3004;SDS011;1512;51.486;6.610;2023-03-29T23:56:04;4.47;;;3.70;;
